createdAt,value
2017-05-14T00:01:38.048Z,45.70
2017-05-14T00:04:06.328Z,49.48
2017-05-14T00:06:34.992Z,47.90
2017-05-14T00:09:03.277Z,48.92
2017-05-14T00:11:31.583Z,48.73
2017-05-14T00:13:59.877Z,50.35
2017-05-14T00:16:28.174Z,47.52
2017-05-14T00:18:56.468Z,49.42
2017-05-14T00:21:24.762Z,48.25
2017-05-14T00:23:53.049Z,47.18
2017-05-14T00:26:21.365Z,47.27
2017-05-14T00:28:49.671Z,51.13
2017-05-14T00:31:18.700Z,54.58
2017-05-14T00:33:47.000Z,50.00
2017-05-14T00:36:15.377Z,49.33
2017-05-14T00:38:43.659Z,53.22
2017-05-14T00:41:11.964Z,52.23
2017-05-14T00:43:40.270Z,51.02
2017-05-14T00:46:08.565Z,50.07
2017-05-14T00:48:37.750Z,48.58
2017-05-14T00:51:06.025Z,50.13
2017-05-14T00:53:34.315Z,50.45
2017-05-14T00:56:02.887Z,49.20
2017-05-14T00:58:31.166Z,49.17
2017-05-14T01:00:59.475Z,48.17
2017-05-14T01:03:27.775Z,49.75
2017-05-14T01:05:56.054Z,50.78
2017-05-14T01:08:24.367Z,47.75
2017-05-14T01:10:52.657Z,50.32
2017-05-14T01:13:20.970Z,46.17
2017-05-14T01:15:49.283Z,51.58
2017-05-14T01:18:17.570Z,54.70
2017-05-14T01:20:45.859Z,50.02
2017-05-14T01:23:14.161Z,50.32
2017-05-14T01:25:42.444Z,50.20
2017-05-14T01:28:10.746Z,50.58
2017-05-14T01:30:39.014Z,53.53
2017-05-14T01:33:07.315Z,50.95
2017-05-14T01:35:35.605Z,51.22
2017-05-14T01:38:04.139Z,54.50
2017-05-14T01:40:32.483Z,52.90
2017-05-14T01:43:00.794Z,53.38
2017-05-14T01:45:29.101Z,53.15
2017-05-14T01:47:57.380Z,51.90
2017-05-14T01:50:25.733Z,56.05
2017-05-14T01:52:54.130Z,54.32
2017-05-14T01:55:22.459Z,55.92
2017-05-14T01:57:50.760Z,54.28
2017-05-14T02:00:19.059Z,53.32
2017-05-14T02:02:47.363Z,55.18
2017-05-14T02:05:15.702Z,52.35
2017-05-14T02:07:44.031Z,54.75
2017-05-14T02:10:13.070Z,52.85
2017-05-14T02:12:41.369Z,54.43
2017-05-14T02:15:09.660Z,52.12
2017-05-14T02:17:37.963Z,53.52
2017-05-14T02:20:06.383Z,53.38
2017-05-14T02:22:34.677Z,53.62
2017-05-14T02:25:02.969Z,55.75
2017-05-14T02:27:31.255Z,51.38
2017-05-14T02:30:00.310Z,50.98
2017-05-14T02:32:28.614Z,52.02
2017-05-14T02:34:56.898Z,55.15
2017-05-14T02:37:25.179Z,55.75
2017-05-14T02:39:53.468Z,53.47
2017-05-14T02:42:22.498Z,56.10
2017-05-14T02:44:50.789Z,57.12
2017-05-14T02:47:19.108Z,56.98
2017-05-14T02:49:47.409Z,57.12
2017-05-14T02:52:15.714Z,55.32
2017-05-14T02:54:44.018Z,54.58
2017-05-14T02:57:12.332Z,55.95
2017-05-14T02:59:41.349Z,51.43
2017-05-14T03:02:09.650Z,57.27
2017-05-14T03:04:37.973Z,53.85
2017-05-14T03:07:06.261Z,53.03
2017-05-14T03:09:35.293Z,52.18
2017-05-14T03:12:03.595Z,53.73
2017-05-14T03:14:31.905Z,51.37
2017-05-14T03:17:00.260Z,51.35
2017-05-14T03:19:28.552Z,50.97
2017-05-14T03:21:56.838Z,52.80
2017-05-14T03:24:25.182Z,53.40
2017-05-14T03:26:53.477Z,51.67
2017-05-14T03:29:21.781Z,46.98
2017-05-14T03:31:50.067Z,48.70
2017-05-14T03:34:18.367Z,52.98
2017-05-14T03:36:46.681Z,49.20
2017-05-14T03:39:14.999Z,51.37
2017-05-14T03:41:43.619Z,51.37
2017-05-14T03:44:11.957Z,47.42
2017-05-14T03:46:40.233Z,51.95
2017-05-14T03:49:09.298Z,52.20
2017-05-14T03:51:37.613Z,50.75
2017-05-14T03:54:05.910Z,73.12
2017-05-14T03:56:34.247Z,71.77
2017-05-14T03:59:02.537Z,67.03
2017-05-14T04:01:30.812Z,61.58
2017-05-14T04:03:59.123Z,56.50
2017-05-14T04:06:27.428Z,57.27
2017-05-14T04:08:55.720Z,65.10
2017-05-14T04:11:24.040Z,57.92
2017-05-14T04:13:52.355Z,63.85
2017-05-14T04:16:20.631Z,61.50
2017-05-14T04:18:48.931Z,54.42
2017-05-14T04:21:17.223Z,57.73
2017-05-14T04:23:45.526Z,53.00
2017-05-14T04:26:13.808Z,54.92
2017-05-14T04:28:42.101Z,49.52
2017-05-14T04:31:10.395Z,49.95
2017-05-14T04:33:38.692Z,49.42
2017-05-14T04:36:06.979Z,46.75
2017-05-14T04:38:35.977Z,48.30
2017-05-14T04:41:04.259Z,44.40
2017-05-14T04:43:33.105Z,44.20
2017-05-14T04:46:01.445Z,45.73
2017-05-14T04:48:29.752Z,47.78
2017-05-14T04:50:58.038Z,46.63
2017-05-14T04:53:26.323Z,44.87
2017-05-14T04:55:54.604Z,46.30
2017-05-14T04:58:22.911Z,47.53
2017-05-14T05:00:51.975Z,46.43
2017-05-14T05:03:20.275Z,48.02
2017-05-14T05:05:48.549Z,49.13
2017-05-14T05:08:16.928Z,48.72
2017-05-14T05:10:45.210Z,45.48
2017-05-14T05:13:13.484Z,48.57
2017-05-14T05:15:41.761Z,45.77
2017-05-14T05:18:10.055Z,42.80
2017-05-14T05:20:38.351Z,43.45
2017-05-14T05:23:06.651Z,43.55
2017-05-14T05:25:34.949Z,44.05
2017-05-14T05:28:03.244Z,45.78
2017-05-14T05:30:31.553Z,43.52
2017-05-14T05:32:59.846Z,44.05
2017-05-14T05:35:28.147Z,45.08
2017-05-14T05:37:56.426Z,43.10
2017-05-14T05:40:24.713Z,43.07
2017-05-14T05:42:53.027Z,42.92
2017-05-14T05:45:21.307Z,41.73
2017-05-14T05:47:49.613Z,39.07
2017-05-14T05:50:18.052Z,42.53
2017-05-14T05:52:46.394Z,42.38
2017-05-14T05:55:14.698Z,41.42
2017-05-14T05:57:42.988Z,44.17
2017-05-14T06:00:14.896Z,44.27
2017-05-14T06:02:43.193Z,42.57
2017-05-14T06:05:11.527Z,45.37
2017-05-14T06:07:39.848Z,43.25
2017-05-14T06:10:08.141Z,44.92
2017-05-14T06:12:36.423Z,44.03
2017-05-14T06:15:04.886Z,47.30
2017-05-14T06:17:33.194Z,43.77
2017-05-14T06:20:01.470Z,48.35
2017-05-14T06:22:29.779Z,45.03
2017-05-14T06:24:58.600Z,41.73
2017-05-14T06:27:26.910Z,43.65
2017-05-14T06:29:55.384Z,45.98
2017-05-14T06:32:23.662Z,43.82
2017-05-14T06:34:51.953Z,43.03
2017-05-14T06:37:20.251Z,44.83
2017-05-14T06:39:48.551Z,40.97
2017-05-14T06:42:16.919Z,40.40
2017-05-14T06:44:45.211Z,40.90
2017-05-14T06:47:13.510Z,39.28
2017-05-14T06:49:41.812Z,39.13
2017-05-14T06:52:10.273Z,40.42
2017-05-14T06:54:38.588Z,41.27
2017-05-14T06:57:06.901Z,38.55
2017-05-14T06:59:35.203Z,41.53
2017-05-14T07:02:03.531Z,39.68
2017-05-14T07:04:32.635Z,35.85
2017-05-14T07:07:00.946Z,38.02
2017-05-14T07:09:29.322Z,35.32
2017-05-14T07:11:57.686Z,40.02
2017-05-14T07:14:26.000Z,36.93
2017-05-14T07:16:54.277Z,36.02
2017-05-14T07:19:22.595Z,34.85
2017-05-14T07:21:50.925Z,34.78
2017-05-14T07:24:19.303Z,33.57
2017-05-14T07:26:47.622Z,33.25
2017-05-14T07:29:16.688Z,32.47
2017-05-14T07:31:45.114Z,32.33
2017-05-14T07:34:13.430Z,29.55
2017-05-14T07:36:41.911Z,26.67
2017-05-14T07:39:10.229Z,28.23
2017-05-14T07:41:38.552Z,25.57
2017-05-14T07:44:06.845Z,24.07
2017-05-14T07:46:35.153Z,23.77
2017-05-14T07:49:04.349Z,24.37
2017-05-14T07:51:32.684Z,23.67
2017-05-14T07:54:00.978Z,21.95
2017-05-14T07:56:29.336Z,22.45
2017-05-14T07:58:57.658Z,20.05
2017-05-14T08:01:25.980Z,21.40
2017-05-14T08:03:54.288Z,19.68
2017-05-14T08:06:22.591Z,20.57
2017-05-14T08:08:50.867Z,21.18
2017-05-14T08:11:19.240Z,19.30
2017-05-14T08:13:47.578Z,17.00
2017-05-14T08:16:15.880Z,17.00
2017-05-14T08:18:44.205Z,16.17
2017-05-14T08:21:13.310Z,18.27
2017-05-14T08:23:41.603Z,17.32
2017-05-14T08:26:09.905Z,15.87
2017-05-14T08:28:38.202Z,13.22
2017-05-14T08:31:06.475Z,9.30
2017-05-14T08:33:34.926Z,9.80
2017-05-14T08:36:03.225Z,11.45
2017-05-14T08:38:31.548Z,7.83
2017-05-14T08:40:59.853Z,8.55
2017-05-14T08:43:28.201Z,9.93
2017-05-14T08:45:57.410Z,9.58
2017-05-14T08:48:25.751Z,12.13
2017-05-14T08:50:54.074Z,9.75
2017-05-14T08:53:22.405Z,6.17
2017-05-14T08:55:50.696Z,9.05
2017-05-14T08:58:20.035Z,7.35
2017-05-14T09:00:48.405Z,7.10
2017-05-14T09:03:16.700Z,8.22
2017-05-14T09:05:45.014Z,6.22
2017-05-14T09:08:13.332Z,6.47
2017-05-14T09:10:41.609Z,5.88
2017-05-14T09:13:09.940Z,6.07
2017-05-14T09:15:38.614Z,6.90
2017-05-14T09:18:06.953Z,6.20
2017-05-14T09:20:35.264Z,6.42
2017-05-14T09:23:03.549Z,5.37
2017-05-14T09:25:31.832Z,7.15
2017-05-14T09:28:00.310Z,6.42
2017-05-14T09:30:28.674Z,5.85
2017-05-14T09:32:57.014Z,6.10
2017-05-14T09:35:26.368Z,6.65
2017-05-14T09:37:54.649Z,5.90
2017-05-14T09:40:22.987Z,6.62
2017-05-14T09:42:51.267Z,6.83
2017-05-14T09:45:19.539Z,5.17
2017-05-14T09:47:47.869Z,5.38
2017-05-14T09:50:16.180Z,5.67
2017-05-14T09:52:45.212Z,6.40
2017-05-14T09:55:13.550Z,6.30
2017-05-14T09:57:41.894Z,6.80
2017-05-14T10:00:10.188Z,6.30
2017-05-14T10:02:38.523Z,6.88
2017-05-14T10:05:06.828Z,6.25
2017-05-14T10:07:35.091Z,5.98
2017-05-14T10:10:03.378Z,6.45
2017-05-14T10:12:32.104Z,6.38
2017-05-14T10:15:01.168Z,6.87
2017-05-14T10:17:29.459Z,7.18
2017-05-14T10:19:57.746Z,8.85
2017-05-14T10:22:26.058Z,7.75
2017-05-14T10:24:54.605Z,8.08
2017-05-14T10:27:23.648Z,6.45
2017-05-14T10:29:51.957Z,6.38
2017-05-14T10:32:20.251Z,7.23
2017-05-14T10:34:48.564Z,7.88
2017-05-14T10:37:16.878Z,5.92
2017-05-14T10:39:45.179Z,6.50
2017-05-14T10:42:13.512Z,6.98
2017-05-14T10:44:41.780Z,6.88
2017-05-14T10:47:10.055Z,6.47
2017-05-14T10:49:38.373Z,5.47
2017-05-14T10:52:06.671Z,6.20
2017-05-14T10:54:35.005Z,5.32
2017-05-14T10:57:03.301Z,6.47
2017-05-14T10:59:31.642Z,5.97
2017-05-14T11:01:59.998Z,6.60
2017-05-14T11:04:28.297Z,5.53
2017-05-14T11:06:56.618Z,5.12
2017-05-14T11:09:24.943Z,5.50
2017-05-14T11:11:54.000Z,5.12
2017-05-14T11:14:22.575Z,7.10
2017-05-14T11:16:50.885Z,6.23
2017-05-14T11:19:19.226Z,6.73
2017-05-14T11:21:47.532Z,5.48
2017-05-14T11:24:15.836Z,6.47
2017-05-14T11:26:44.922Z,6.08
2017-05-14T11:29:13.994Z,5.62
2017-05-14T11:31:42.332Z,5.05
2017-05-14T11:34:10.642Z,5.08
2017-05-14T11:36:38.933Z,5.02
2017-05-14T11:39:08.135Z,4.10
2017-05-14T11:41:37.985Z,5.38
2017-05-14T11:44:06.257Z,4.13
2017-05-14T11:46:34.594Z,4.48
2017-05-14T11:49:02.922Z,4.55
2017-05-14T11:51:31.233Z,5.03
2017-05-14T11:53:59.520Z,4.90
2017-05-14T11:56:27.804Z,3.70
2017-05-14T11:58:56.185Z,3.57
2017-05-14T12:01:24.475Z,4.13
2017-05-14T12:03:53.505Z,3.95
2017-05-14T12:06:21.797Z,4.03
2017-05-14T12:08:50.072Z,4.05
2017-05-14T12:11:18.335Z,3.93
2017-05-14T12:13:46.612Z,4.12
2017-05-14T12:16:14.940Z,4.43
2017-05-14T12:18:43.227Z,3.92
2017-05-14T12:21:12.241Z,3.70
2017-05-14T12:23:40.509Z,3.75
2017-05-14T12:26:08.924Z,3.25
2017-05-14T12:28:37.241Z,2.23
2017-05-14T12:31:05.593Z,2.62
2017-05-14T12:33:33.876Z,3.20
2017-05-14T12:36:02.170Z,3.35
2017-05-14T12:38:31.923Z,3.73
2017-05-14T12:41:02.351Z,2.83
2017-05-14T12:43:31.435Z,3.67
2017-05-14T12:46:02.138Z,3.17
2017-05-14T12:48:31.930Z,2.82
2017-05-14T12:51:00.267Z,2.28
2017-05-14T12:53:29.334Z,2.38
2017-05-14T12:55:57.712Z,2.82
2017-05-14T12:58:26.001Z,2.75
2017-05-14T13:00:54.291Z,3.05
2017-05-14T13:03:23.086Z,2.30
2017-05-14T13:05:51.436Z,2.72
2017-05-14T13:08:19.985Z,3.57
2017-05-14T13:10:48.259Z,3.28
2017-05-14T13:13:16.885Z,2.97
2017-05-14T13:15:45.178Z,2.70
2017-05-14T13:18:14.828Z,3.33
2017-05-14T13:20:43.110Z,2.73
2017-05-14T13:23:11.444Z,3.17
2017-05-14T13:25:39.741Z,4.03
2017-05-14T13:28:08.057Z,4.38
2017-05-14T13:30:36.537Z,4.97
2017-05-14T13:33:05.640Z,4.13
2017-05-14T13:35:33.963Z,4.52
2017-05-14T13:38:03.004Z,6.32
2017-05-14T13:40:31.298Z,5.72
2017-05-14T13:42:59.628Z,7.87
2017-05-14T13:45:28.007Z,8.13
2017-05-14T13:47:56.319Z,7.65
2017-05-14T13:50:24.656Z,6.82
2017-05-14T13:52:53.704Z,7.02
2017-05-14T13:55:22.031Z,7.62
2017-05-14T13:57:50.371Z,7.65
2017-05-14T14:00:18.752Z,7.53
2017-05-14T14:02:47.116Z,6.63
2017-05-14T14:05:15.495Z,8.17
2017-05-14T14:07:43.784Z,6.77
2017-05-14T14:10:12.088Z,8.15
2017-05-14T14:12:41.309Z,7.28
2017-05-14T14:15:09.644Z,7.65
2017-05-14T14:17:38.009Z,7.97
2017-05-14T14:20:06.467Z,7.60
2017-05-14T14:22:34.753Z,7.48
2017-05-14T14:25:03.119Z,7.58
2017-05-14T14:27:31.492Z,6.85
2017-05-14T14:29:59.805Z,8.43
2017-05-14T14:32:30.968Z,7.37
2017-05-14T14:34:59.284Z,7.77
2017-05-14T14:37:27.595Z,6.08
2017-05-14T14:39:55.932Z,5.25
2017-05-14T14:42:24.289Z,4.93
2017-05-14T14:44:52.631Z,3.20
2017-05-14T14:47:21.030Z,3.75
2017-05-14T14:49:49.430Z,5.43
2017-05-14T14:52:17.809Z,5.03
2017-05-14T14:54:46.144Z,5.32
2017-05-14T14:57:14.467Z,5.27
2017-05-14T14:59:43.508Z,5.37
2017-05-14T15:02:11.928Z,4.30
2017-05-14T15:04:40.252Z,4.52
2017-05-14T15:07:08.577Z,4.03
2017-05-14T15:09:36.913Z,3.02
2017-05-14T15:12:05.320Z,2.45
2017-05-14T15:14:33.732Z,2.17
2017-05-14T15:17:02.060Z,2.82
2017-05-14T15:19:30.396Z,2.60
2017-05-14T15:21:59.763Z,2.23
2017-05-14T15:24:28.090Z,2.80
2017-05-14T15:26:57.443Z,2.70
2017-05-14T15:29:25.756Z,2.63
2017-05-14T15:31:54.804Z,2.67
2017-05-14T15:34:23.158Z,2.62
2017-05-14T15:36:51.479Z,2.73
2017-05-14T15:39:19.858Z,2.70
2017-05-14T15:41:48.288Z,2.62
2017-05-14T15:44:16.626Z,2.70
2017-05-14T15:46:45.113Z,3.10
2017-05-14T15:49:13.502Z,3.30
2017-05-14T15:51:41.838Z,3.60
2017-05-14T15:54:11.238Z,3.12
2017-05-14T15:56:39.519Z,3.23
2017-05-14T15:59:07.849Z,3.88
2017-05-14T16:01:36.155Z,2.68
2017-05-14T16:04:06.514Z,2.63
2017-05-14T16:06:35.666Z,2.98
2017-05-14T16:09:03.988Z,3.80
2017-05-14T16:11:32.328Z,4.35
2017-05-14T16:14:00.714Z,4.48
2017-05-14T16:16:29.026Z,3.63
2017-05-14T16:18:57.373Z,4.13
2017-05-14T16:21:25.688Z,4.45
2017-05-14T16:23:54.004Z,4.78
2017-05-14T16:26:22.335Z,4.12
2017-05-14T16:28:50.669Z,4.98
2017-05-14T16:31:18.979Z,5.05
2017-05-14T16:33:47.924Z,4.27
2017-05-14T16:36:16.955Z,4.30
2017-05-14T16:38:45.268Z,4.50
2017-05-14T16:41:13.569Z,5.78
2017-05-14T16:43:42.764Z,3.52
2017-05-14T16:46:11.848Z,3.20
2017-05-14T16:48:40.148Z,3.63
2017-05-14T16:51:08.442Z,4.33
2017-05-14T16:53:37.738Z,5.03
2017-05-14T16:56:07.003Z,4.52
2017-05-14T16:58:35.323Z,3.65
2017-05-14T17:01:03.627Z,3.80
2017-05-14T17:03:31.994Z,4.53
2017-05-14T17:06:00.272Z,4.88
2017-05-14T17:08:28.632Z,2.92
2017-05-14T17:10:57.082Z,3.65
2017-05-14T17:13:25.383Z,2.95
2017-05-14T17:15:53.684Z,3.43
2017-05-14T17:18:22.065Z,2.93
2017-05-14T17:20:50.766Z,3.38
2017-05-14T17:23:19.105Z,6.00
2017-05-14T17:25:47.399Z,3.77
2017-05-14T17:28:15.710Z,3.42
2017-05-14T17:30:44.096Z,3.15
2017-05-14T17:33:12.384Z,2.70
2017-05-14T17:35:40.697Z,2.80
2017-05-14T17:38:09.032Z,2.17
2017-05-14T17:40:38.730Z,3.13
2017-05-14T17:43:07.092Z,2.83
2017-05-14T17:45:35.401Z,2.58
2017-05-14T17:48:03.734Z,3.23
2017-05-14T17:50:32.072Z,3.80
2017-05-14T17:53:00.376Z,3.63
2017-05-14T17:55:29.640Z,3.70
2017-05-14T17:57:57.972Z,3.00
2017-05-14T18:00:26.355Z,2.92
2017-05-14T18:02:54.665Z,13.65
2017-05-14T18:05:22.978Z,3.57
2017-05-14T18:07:52.024Z,3.58
2017-05-14T18:10:20.334Z,2.90
2017-05-14T18:12:48.685Z,3.15
2017-05-14T18:15:17.067Z,2.37
2017-05-14T18:17:45.378Z,2.87
2017-05-14T18:20:14.455Z,2.55
2017-05-14T18:22:42.790Z,2.93
2017-05-14T18:25:11.217Z,2.93
2017-05-14T18:27:40.277Z,5.25
2017-05-14T18:30:08.690Z,4.53
2017-05-14T18:32:37.145Z,3.02
2017-05-14T18:35:05.485Z,4.17
2017-05-14T18:37:33.812Z,4.07
2017-05-14T18:40:02.125Z,4.00
2017-05-14T18:42:30.533Z,3.27
2017-05-14T18:44:58.964Z,3.20
2017-05-14T18:47:27.284Z,2.95
2017-05-14T18:49:55.608Z,3.45
2017-05-14T18:52:23.982Z,3.78
2017-05-14T18:54:52.348Z,4.53
2017-05-14T18:57:20.658Z,3.78
2017-05-14T18:59:48.991Z,4.38
2017-05-14T19:02:17.321Z,6.23
2017-05-14T19:04:45.712Z,6.25
2017-05-14T19:07:14.078Z,4.98
2017-05-14T19:09:42.372Z,5.63
2017-05-14T19:12:10.810Z,5.10
2017-05-14T19:14:39.110Z,4.93
2017-05-14T19:17:07.436Z,6.47
2017-05-14T19:19:35.744Z,6.07
2017-05-14T19:22:04.059Z,6.77
2017-05-14T19:24:32.409Z,9.97
2017-05-14T19:27:00.719Z,9.05
2017-05-14T19:29:29.068Z,6.73
2017-05-14T19:31:57.442Z,7.08
2017-05-14T19:34:25.776Z,6.57
2017-05-14T19:36:54.120Z,6.37
2017-05-14T19:39:22.454Z,7.03
2017-05-14T19:41:50.758Z,7.28
2017-05-14T19:44:19.145Z,6.42
2017-05-14T19:46:47.508Z,6.95
2017-05-14T19:49:15.916Z,5.65
2017-05-14T19:51:44.280Z,5.88
2017-05-14T19:54:12.593Z,7.20
2017-05-14T19:56:40.940Z,6.52
2017-05-14T19:59:09.339Z,7.53
2017-05-14T20:01:37.699Z,6.83
2017-05-14T20:04:10.836Z,8.35
2017-05-14T20:06:39.319Z,9.38
2017-05-14T20:09:07.657Z,7.45
2017-05-14T20:11:36.019Z,7.40
2017-05-14T20:14:04.345Z,6.43
2017-05-14T20:16:32.681Z,6.87
2017-05-14T20:19:00.993Z,9.47
2017-05-14T20:21:30.148Z,8.75
2017-05-14T20:23:58.526Z,9.45
2017-05-14T20:26:26.891Z,9.28
2017-05-14T20:28:55.195Z,9.88
2017-05-14T20:31:23.511Z,18.65
2017-05-14T20:33:51.906Z,14.72
2017-05-14T20:36:20.285Z,11.92
2017-05-14T20:38:48.608Z,10.80
2017-05-14T20:41:16.980Z,11.43
2017-05-14T20:43:45.303Z,9.88
2017-05-14T20:46:13.650Z,10.98
2017-05-14T20:48:41.949Z,30.68
2017-05-14T20:51:11.007Z,25.57
2017-05-14T20:53:39.384Z,13.97
2017-05-14T20:56:07.813Z,10.35
2017-05-14T20:58:36.861Z,11.77
2017-05-14T21:01:05.178Z,12.07
2017-05-14T21:03:34.255Z,12.80
2017-05-14T21:06:03.462Z,11.33
2017-05-14T21:08:31.756Z,12.12
2017-05-14T21:11:00.093Z,12.87
2017-05-14T21:13:28.764Z,14.27
2017-05-14T21:15:57.044Z,14.92
2017-05-14T21:18:25.383Z,13.08
2017-05-14T21:20:53.913Z,14.27
2017-05-14T21:23:22.220Z,13.87
2017-05-14T21:25:50.537Z,14.30
2017-05-14T21:28:18.829Z,13.65
2017-05-14T21:30:47.141Z,13.92
2017-05-14T21:33:15.446Z,14.45
2017-05-14T21:35:44.808Z,14.65
2017-05-14T21:38:13.114Z,16.17
2017-05-14T21:40:41.408Z,14.48
2017-05-14T21:43:09.833Z,17.27
2017-05-14T21:45:38.179Z,15.15
2017-05-14T21:48:06.608Z,15.08
2017-05-14T21:50:34.945Z,18.65
2017-05-14T21:53:03.468Z,15.95
2017-05-14T21:55:32.097Z,15.68
2017-05-14T21:58:01.634Z,15.92
2017-05-14T22:00:30.505Z,15.05
2017-05-14T22:02:58.842Z,16.25
2017-05-14T22:05:27.172Z,18.40
2017-05-14T22:07:55.497Z,15.22
2017-05-14T22:10:23.839Z,14.03
2017-05-14T22:12:52.147Z,14.92
2017-05-14T22:15:20.479Z,17.38
2017-05-14T22:17:48.824Z,15.58
2017-05-14T22:20:17.115Z,14.90
2017-05-14T22:22:45.444Z,15.73
2017-05-14T22:25:13.772Z,16.08
2017-05-14T22:27:42.934Z,15.13
2017-05-14T22:30:11.222Z,14.48
2017-05-14T22:32:39.537Z,14.77
2017-05-14T22:35:07.843Z,14.97
2017-05-14T22:37:36.130Z,15.17
2017-05-14T22:40:04.444Z,15.08
2017-05-14T22:42:32.751Z,16.12
2017-05-14T22:45:01.058Z,16.15
2017-05-14T22:47:29.360Z,15.12
2017-05-14T22:49:57.787Z,16.17
2017-05-14T22:52:26.108Z,15.30
2017-05-14T22:54:54.478Z,16.87
2017-05-14T22:57:22.809Z,15.58
2017-05-14T22:59:51.847Z,16.53
2017-05-14T23:02:20.119Z,16.50
2017-05-14T23:04:48.419Z,15.80
2017-05-14T23:07:17.605Z,16.97
2017-05-14T23:09:46.303Z,15.82
2017-05-14T23:12:14.607Z,13.70
2017-05-14T23:14:43.829Z,16.45
2017-05-14T23:17:12.111Z,16.70
2017-05-14T23:19:40.486Z,18.45
2017-05-14T23:22:08.846Z,16.63
2017-05-14T23:24:38.533Z,17.13
2017-05-14T23:27:07.296Z,17.22
2017-05-14T23:29:36.324Z,17.82
2017-05-14T23:32:05.357Z,17.02
2017-05-14T23:34:33.687Z,16.55
2017-05-14T23:37:02.674Z,16.53
2017-05-14T23:39:30.961Z,17.38
2017-05-14T23:41:59.319Z,17.40
2017-05-14T23:44:27.631Z,17.58
2017-05-14T23:46:56.661Z,17.48
2017-05-14T23:49:24.953Z,16.97
2017-05-14T23:51:53.268Z,16.55
2017-05-14T23:54:21.549Z,17.40
2017-05-14T23:56:49.875Z,16.70
2017-05-14T23:59:18.183Z,17.28
